sensor_id;sensor_type;location;lat;lon;timestamp;temperature;humidity
18898;DHT22;9581;49.484;8.556;2024-03-08T00:00:59;7.20;99.90
18898;DHT22;9581;49.484;8.556;2024-03-08T00:03:27;6.90;99.90
18898;DHT22;9581;49.484;8.556;2024-03-08T00:05:54;6.90;99.90
18898;DHT22;9581;49.484;8.556;2024-03-08T00:08:21;6.90;99.90
18898;DHT22;9581;49.484;8.556;2024-03-08T00:10:48;6.90;99.90
18898;DHT22;9581;49.484;8.556;2024-03-08T00:13:15;6.80;99.90
18898;DHT22;9581;49.484;8.556;2024-03-08T00:15:41;6.80;99.90
18898;DHT22;9581;49.484;8.556;2024-03-08T00:18:08;6.80;99.90
18898;DHT22;9581;49.484;8.556;2024-03-08T00:20:37;6.80;99.90
18898;DHT22;9581;49.484;8.556;2024-03-08T00:23:04;7.00;99.90
18898;DHT22;9581;49.484;8.556;2024-03-08T00:25:30;6.80;99.90
18898;DHT22;9581;49.484;8.556;2024-03-08T00:27:57;6.60;99.90
18898;DHT22;9581;49.484;8.556;2024-03-08T00:30:25;6.80;99.90
18898;DHT22;9581;49.484;8.556;2024-03-08T00:32:52;6.80;99.90
18898;DHT22;9581;49.484;8.556;2024-03-08T00:35:18;6.90;99.90
18898;DHT22;9581;49.484;8.556;2024-03-08T00:37:46;6.70;99.90
18898;DHT22;9581;49.484;8.556;2024-03-08T00:40:13;6.80;99.90
18898;DHT22;9581;49.484;8.556;2024-03-08T00:42:40;6.80;99.90
18898;DHT22;9581;49.484;8.556;2024-03-08T00:45:09;6.80;99.90
18898;DHT22;9581;49.484;8.556;2024-03-08T00:47:36;6.80;99.90
18898;DHT22;9581;49.484;8.556;2024-03-08T00:50:03;6.80;99.90
18898;DHT22;9581;49.484;8.556;2024-03-08T00:52:30;6.70;99.90
18898;DHT22;9581;49.484;8.556;2024-03-08T00:54:58;6.60;99.90
18898;DHT22;9581;49.484;8.556;2024-03-08T00:57:25;6.60;99.90
18898;DHT22;9581;49.484;8.556;2024-03-08T00:59:52;6.70;99.90
18898;DHT22;9581;49.484;8.556;2024-03-08T01:02:18;6.50;99.90
18898;DHT22;9581;49.484;8.556;2024-03-08T01:04:45;6.60;99.90
18898;DHT22;9581;49.484;8.556;2024-03-08T01:07:12;6.60;99.90
18898;DHT22;9581;49.484;8.556;2024-03-08T01:09:39;6.70;99.90
18898;DHT22;9581;49.484;8.556;2024-03-08T01:12:07;6.60;99.90
18898;DHT22;9581;49.484;8.556;2024-03-08T01:14:36;6.80;99.90
18898;DHT22;9581;49.484;8.556;2024-03-08T01:17:02;6.80;99.90
18898;DHT22;9581;49.484;8.556;2024-03-08T01:19:29;6.70;99.90
18898;DHT22;9581;49.484;8.556;2024-03-08T01:21:57;6.60;99.90
18898;DHT22;9581;49.484;8.556;2024-03-08T01:24:24;6.60;99.90
18898;DHT22;9581;49.484;8.556;2024-03-08T01:26:51;6.70;99.90
18898;DHT22;9581;49.484;8.556;2024-03-08T01:29:19;6.70;99.90
18898;DHT22;9581;49.484;8.556;2024-03-08T01:31:45;6.60;99.90
18898;DHT22;9581;49.484;8.556;2024-03-08T01:34:12;6.60;99.90
18898;DHT22;9581;49.484;8.556;2024-03-08T01:36:39;6.60;99.90
18898;DHT22;9581;49.484;8.556;2024-03-08T01:39:05;6.50;99.90
18898;DHT22;9581;49.484;8.556;2024-03-08T01:41:33;6.50;99.90
18898;DHT22;9581;49.484;8.556;2024-03-08T01:44:01;6.60;99.90
18898;DHT22;9581;49.484;8.556;2024-03-08T01:46:29;6.70;99.90
18898;DHT22;9581;49.484;8.556;2024-03-08T01:48:56;6.80;99.90
18898;DHT22;9581;49.484;8.556;2024-03-08T01:51:23;6.80;99.90
18898;DHT22;9581;49.484;8.556;2024-03-08T01:53:50;6.60;99.90
18898;DHT22;9581;49.484;8.556;2024-03-08T01:56:17;6.40;99.90
18898;DHT22;9581;49.484;8.556;2024-03-08T01:58:44;6.50;99.90
18898;DHT22;9581;49.484;8.556;2024-03-08T02:01:12;6.50;99.90
18898;DHT22;9581;49.484;8.556;2024-03-08T02:03:41;6.20;99.90
18898;DHT22;9581;49.484;8.556;2024-03-08T02:06:09;6.20;99.90
18898;DHT22;9581;49.484;8.556;2024-03-08T02:08:36;6.20;99.90
18898;DHT22;9581;49.484;8.556;2024-03-08T02:11:04;6.30;99.90
18898;DHT22;9581;49.484;8.556;2024-03-08T02:13:31;6.30;99.90
18898;DHT22;9581;49.484;8.556;2024-03-08T02:16:00;6.40;99.90
18898;DHT22;9581;49.484;8.556;2024-03-08T02:18:28;6.40;99.90
18898;DHT22;9581;49.484;8.556;2024-03-08T02:20:57;6.30;99.90
18898;DHT22;9581;49.484;8.556;2024-03-08T02:23:24;6.30;99.90
18898;DHT22;9581;49.484;8.556;2024-03-08T02:25:52;6.20;99.90
18898;DHT22;9581;49.484;8.556;2024-03-08T02:28:19;6.30;99.90
18898;DHT22;9581;49.484;8.556;2024-03-08T02:30:46;6.20;99.90
18898;DHT22;9581;49.484;8.556;2024-03-08T02:33:14;5.90;99.90
18898;DHT22;9581;49.484;8.556;2024-03-08T02:35:42;6.10;99.90
18898;DHT22;9581;49.484;8.556;2024-03-08T02:38:12;6.10;99.90
18898;DHT22;9581;49.484;8.556;2024-03-08T02:40:42;6.10;99.90
18898;DHT22;9581;49.484;8.556;2024-03-08T02:43:08;6.10;99.90
18898;DHT22;9581;49.484;8.556;2024-03-08T02:45:35;5.90;99.90
18898;DHT22;9581;49.484;8.556;2024-03-08T02:48:02;5.90;99.90
18898;DHT22;9581;49.484;8.556;2024-03-08T02:50:29;6.00;99.90
18898;DHT22;9581;49.484;8.556;2024-03-08T02:52:56;6.10;99.90
18898;DHT22;9581;49.484;8.556;2024-03-08T02:55:24;6.10;99.90
18898;DHT22;9581;49.484;8.556;2024-03-08T02:57:51;5.90;99.90
18898;DHT22;9581;49.484;8.556;2024-03-08T03:00:20;5.80;99.90
18898;DHT22;9581;49.484;8.556;2024-03-08T03:02:48;6.00;99.90
18898;DHT22;9581;49.484;8.556;2024-03-08T03:05:17;5.70;99.90
18898;DHT22;9581;49.484;8.556;2024-03-08T03:07:44;5.70;99.90
18898;DHT22;9581;49.484;8.556;2024-03-08T03:10:10;5.50;99.90
18898;DHT22;9581;49.484;8.556;2024-03-08T03:12:41;5.60;99.90
18898;DHT22;9581;49.484;8.556;2024-03-08T03:15:09;5.80;99.90
18898;DHT22;9581;49.484;8.556;2024-03-08T03:17:37;5.90;99.90
18898;DHT22;9581;49.484;8.556;2024-03-08T03:20:05;5.90;99.90
18898;DHT22;9581;49.484;8.556;2024-03-08T03:22:36;5.70;99.90
18898;DHT22;9581;49.484;8.556;2024-03-08T03:25:04;5.60;99.90
18898;DHT22;9581;49.484;8.556;2024-03-08T03:27:32;5.80;99.90
18898;DHT22;9581;49.484;8.556;2024-03-08T03:30:00;5.90;99.90
18898;DHT22;9581;49.484;8.556;2024-03-08T03:32:46;5.50;99.90
18898;DHT22;9581;49.484;8.556;2024-03-08T03:35:13;5.50;99.90
18898;DHT22;9581;49.484;8.556;2024-03-08T03:37:41;5.40;99.90
18898;DHT22;9581;49.484;8.556;2024-03-08T03:40:11;5.30;99.90
18898;DHT22;9581;49.484;8.556;2024-03-08T03:42:38;5.50;99.90
18898;DHT22;9581;49.484;8.556;2024-03-08T03:45:07;5.60;99.90
18898;DHT22;9581;49.484;8.556;2024-03-08T03:47:35;5.60;99.90
18898;DHT22;9581;49.484;8.556;2024-03-08T03:50:04;5.70;99.90
18898;DHT22;9581;49.484;8.556;2024-03-08T03:52:31;5.70;99.90
18898;DHT22;9581;49.484;8.556;2024-03-08T03:54:57;5.70;99.90
18898;DHT22;9581;49.484;8.556;2024-03-08T03:57:24;5.60;99.90
18898;DHT22;9581;49.484;8.556;2024-03-08T03:59:51;5.40;99.90
18898;DHT22;9581;49.484;8.556;2024-03-08T04:02:19;5.50;99.90
18898;DHT22;9581;49.484;8.556;2024-03-08T04:04:46;5.60;99.90
18898;DHT22;9581;49.484;8.556;2024-03-08T04:07:13;5.70;99.90
18898;DHT22;9581;49.484;8.556;2024-03-08T04:09:39;5.70;99.90
18898;DHT22;9581;49.484;8.556;2024-03-08T04:12:06;5.80;99.90
18898;DHT22;9581;49.484;8.556;2024-03-08T04:14:35;5.50;99.90
18898;DHT22;9581;49.484;8.556;2024-03-08T04:17:02;5.60;99.90
18898;DHT22;9581;49.484;8.556;2024-03-08T04:19:30;5.50;99.90
18898;DHT22;9581;49.484;8.556;2024-03-08T04:21:57;5.50;99.90
18898;DHT22;9581;49.484;8.556;2024-03-08T04:24:23;5.60;99.90
18898;DHT22;9581;49.484;8.556;2024-03-08T04:26:50;5.60;99.90
18898;DHT22;9581;49.484;8.556;2024-03-08T04:29:18;5.40;99.90
18898;DHT22;9581;49.484;8.556;2024-03-08T04:31:45;5.40;99.90
18898;DHT22;9581;49.484;8.556;2024-03-08T04:34:12;5.60;99.90
18898;DHT22;9581;49.484;8.556;2024-03-08T04:36:41;5.70;99.90
18898;DHT22;9581;49.484;8.556;2024-03-08T04:39:08;5.80;99.90
18898;DHT22;9581;49.484;8.556;2024-03-08T04:41:38;5.70;99.90
18898;DHT22;9581;49.484;8.556;2024-03-08T04:44:05;5.80;99.90
18898;DHT22;9581;49.484;8.556;2024-03-08T04:46:32;5.60;99.90
18898;DHT22;9581;49.484;8.556;2024-03-08T04:49:00;5.50;99.90
18898;DHT22;9581;49.484;8.556;2024-03-08T04:51:27;5.40;99.90
18898;DHT22;9581;49.484;8.556;2024-03-08T04:53:55;5.40;99.90
18898;DHT22;9581;49.484;8.556;2024-03-08T04:56:22;5.20;99.90
18898;DHT22;9581;49.484;8.556;2024-03-08T04:58:49;5.30;99.90
18898;DHT22;9581;49.484;8.556;2024-03-08T05:01:15;5.30;99.90
18898;DHT22;9581;49.484;8.556;2024-03-08T05:03:42;5.40;99.90
18898;DHT22;9581;49.484;8.556;2024-03-08T05:06:09;5.50;99.90
18898;DHT22;9581;49.484;8.556;2024-03-08T05:08:35;5.60;99.90
18898;DHT22;9581;49.484;8.556;2024-03-08T05:11:04;5.70;99.90
18898;DHT22;9581;49.484;8.556;2024-03-08T05:13:32;5.40;99.90
18898;DHT22;9581;49.484;8.556;2024-03-08T05:15:59;5.20;99.90
18898;DHT22;9581;49.484;8.556;2024-03-08T05:18:26;5.30;99.90
18898;DHT22;9581;49.484;8.556;2024-03-08T05:20:54;5.40;99.90
18898;DHT22;9581;49.484;8.556;2024-03-08T05:23:21;5.40;99.90
18898;DHT22;9581;49.484;8.556;2024-03-08T05:25:47;5.40;99.90
18898;DHT22;9581;49.484;8.556;2024-03-08T05:28:16;5.40;99.90
18898;DHT22;9581;49.484;8.556;2024-03-08T05:30:42;5.00;99.90
18898;DHT22;9581;49.484;8.556;2024-03-08T05:33:09;5.10;99.90
18898;DHT22;9581;49.484;8.556;2024-03-08T05:35:36;4.90;99.90
18898;DHT22;9581;49.484;8.556;2024-03-08T05:38:03;5.10;99.90
18898;DHT22;9581;49.484;8.556;2024-03-08T05:40:30;5.20;99.90
18898;DHT22;9581;49.484;8.556;2024-03-08T05:42:58;4.90;99.90
18898;DHT22;9581;49.484;8.556;2024-03-08T05:45:26;5.00;99.90
18898;DHT22;9581;49.484;8.556;2024-03-08T05:47:53;4.90;99.90
18898;DHT22;9581;49.484;8.556;2024-03-08T05:50:19;5.00;99.90
18898;DHT22;9581;49.484;8.556;2024-03-08T05:52:46;5.10;99.90
18898;DHT22;9581;49.484;8.556;2024-03-08T05:55:14;5.00;99.90
18898;DHT22;9581;49.484;8.556;2024-03-08T05:57:40;4.90;99.90
18898;DHT22;9581;49.484;8.556;2024-03-08T06:00:08;4.90;99.90
18898;DHT22;9581;49.484;8.556;2024-03-08T06:02:37;4.90;99.90
18898;DHT22;9581;49.484;8.556;2024-03-08T06:05:08;5.00;99.90
18898;DHT22;9581;49.484;8.556;2024-03-08T06:07:34;5.20;99.90
18898;DHT22;9581;49.484;8.556;2024-03-08T06:10:01;5.10;99.90
18898;DHT22;9581;49.484;8.556;2024-03-08T06:12:28;5.10;99.90
18898;DHT22;9581;49.484;8.556;2024-03-08T06:14:58;5.30;99.90
18898;DHT22;9581;49.484;8.556;2024-03-08T06:17:25;5.20;99.90
18898;DHT22;9581;49.484;8.556;2024-03-08T06:19:53;5.20;99.90
18898;DHT22;9581;49.484;8.556;2024-03-08T06:22:20;5.30;99.90
18898;DHT22;9581;49.484;8.556;2024-03-08T06:24:47;5.30;99.90
18898;DHT22;9581;49.484;8.556;2024-03-08T06:27:13;5.50;99.90
18898;DHT22;9581;49.484;8.556;2024-03-08T06:29:40;5.50;99.90
18898;DHT22;9581;49.484;8.556;2024-03-08T06:32:07;5.60;99.90
18898;DHT22;9581;49.484;8.556;2024-03-08T06:34:33;5.30;99.90
18898;DHT22;9581;49.484;8.556;2024-03-08T06:37:02;5.50;99.90
18898;DHT22;9581;49.484;8.556;2024-03-08T06:39:29;5.50;99.90
18898;DHT22;9581;49.484;8.556;2024-03-08T06:41:57;5.60;99.90
18898;DHT22;9581;49.484;8.556;2024-03-08T06:44:24;5.70;99.90
18898;DHT22;9581;49.484;8.556;2024-03-08T06:46:51;5.80;99.90
18898;DHT22;9581;49.484;8.556;2024-03-08T06:49:17;5.90;99.90
18898;DHT22;9581;49.484;8.556;2024-03-08T06:51:45;5.80;99.90
18898;DHT22;9581;49.484;8.556;2024-03-08T06:54:13;5.80;99.90
18898;DHT22;9581;49.484;8.556;2024-03-08T06:56:39;5.70;99.90
18898;DHT22;9581;49.484;8.556;2024-03-08T06:59:06;5.70;99.90
18898;DHT22;9581;49.484;8.556;2024-03-08T07:01:34;5.80;99.90
18898;DHT22;9581;49.484;8.556;2024-03-08T07:04:02;5.90;99.90
18898;DHT22;9581;49.484;8.556;2024-03-08T07:06:30;5.90;99.90
18898;DHT22;9581;49.484;8.556;2024-03-08T07:08:58;6.00;99.90
18898;DHT22;9581;49.484;8.556;2024-03-08T07:11:27;6.20;99.90
18898;DHT22;9581;49.484;8.556;2024-03-08T07:13:54;6.20;99.90
18898;DHT22;9581;49.484;8.556;2024-03-08T07:16:20;6.20;99.90
18898;DHT22;9581;49.484;8.556;2024-03-08T07:18:47;6.30;99.90
18898;DHT22;9581;49.484;8.556;2024-03-08T07:21:17;6.30;99.90
18898;DHT22;9581;49.484;8.556;2024-03-08T07:23:45;6.20;99.90
18898;DHT22;9581;49.484;8.556;2024-03-08T07:26:30;6.30;99.90
18898;DHT22;9581;49.484;8.556;2024-03-08T07:28:57;6.40;99.90
18898;DHT22;9581;49.484;8.556;2024-03-08T07:31:25;6.40;99.90
18898;DHT22;9581;49.484;8.556;2024-03-08T07:34:03;6.50;99.90
18898;DHT22;9581;49.484;8.556;2024-03-08T07:36:33;6.50;99.90
18898;DHT22;9581;49.484;8.556;2024-03-08T07:39:00;6.50;99.90
18898;DHT22;9581;49.484;8.556;2024-03-08T07:41:27;6.50;99.90
18898;DHT22;9581;49.484;8.556;2024-03-08T07:43:55;6.50;99.90
18898;DHT22;9581;49.484;8.556;2024-03-08T07:46:22;6.50;99.90
18898;DHT22;9581;49.484;8.556;2024-03-08T07:48:49;6.50;99.90
18898;DHT22;9581;49.484;8.556;2024-03-08T07:51:16;6.50;99.90
18898;DHT22;9581;49.484;8.556;2024-03-08T07:53:43;6.80;99.90
18898;DHT22;9581;49.484;8.556;2024-03-08T07:56:10;6.80;99.90
18898;DHT22;9581;49.484;8.556;2024-03-08T07:58:39;7.00;99.90
18898;DHT22;9581;49.484;8.556;2024-03-08T08:01:15;7.00;99.90
18898;DHT22;9581;49.484;8.556;2024-03-08T08:03:42;7.10;99.90
18898;DHT22;9581;49.484;8.556;2024-03-08T08:06:08;7.30;99.90
18898;DHT22;9581;49.484;8.556;2024-03-08T08:08:35;7.40;99.90
18898;DHT22;9581;49.484;8.556;2024-03-08T08:11:02;7.50;99.90
18898;DHT22;9581;49.484;8.556;2024-03-08T08:13:29;7.70;99.90
18898;DHT22;9581;49.484;8.556;2024-03-08T08:15:57;7.80;99.90
18898;DHT22;9581;49.484;8.556;2024-03-08T08:18:25;8.00;99.90
18898;DHT22;9581;49.484;8.556;2024-03-08T08:20:52;7.50;99.90
18898;DHT22;9581;49.484;8.556;2024-03-08T08:23:19;7.90;99.90
18898;DHT22;9581;49.484;8.556;2024-03-08T08:25:46;7.80;99.90
18898;DHT22;9581;49.484;8.556;2024-03-08T08:28:15;7.80;99.90
18898;DHT22;9581;49.484;8.556;2024-03-08T08:30:43;8.30;99.90
18898;DHT22;9581;49.484;8.556;2024-03-08T08:33:09;8.60;99.90
18898;DHT22;9581;49.484;8.556;2024-03-08T08:35:37;8.50;99.90
18898;DHT22;9581;49.484;8.556;2024-03-08T08:38:04;8.70;99.90
18898;DHT22;9581;49.484;8.556;2024-03-08T08:40:32;9.00;99.90
18898;DHT22;9581;49.484;8.556;2024-03-08T08:42:59;9.20;99.90
18898;DHT22;9581;49.484;8.556;2024-03-08T08:45:26;9.30;99.90
18898;DHT22;9581;49.484;8.556;2024-03-08T08:47:53;9.70;99.90
18898;DHT22;9581;49.484;8.556;2024-03-08T08:50:20;10.30;99.90
18898;DHT22;9581;49.484;8.556;2024-03-08T08:52:49;10.10;99.90
18898;DHT22;9581;49.484;8.556;2024-03-08T08:55:16;10.10;99.90
18898;DHT22;9581;49.484;8.556;2024-03-08T08:57:46;12.50;99.90
18898;DHT22;9581;49.484;8.556;2024-03-08T09:00:13;13.70;99.90
18898;DHT22;9581;49.484;8.556;2024-03-08T09:02:41;14.10;99.50
18898;DHT22;9581;49.484;8.556;2024-03-08T09:05:08;17.20;97.70
18898;DHT22;9581;49.484;8.556;2024-03-08T09:07:34;16.10;93.60
18898;DHT22;9581;49.484;8.556;2024-03-08T09:10:03;12.20;96.00
18898;DHT22;9581;49.484;8.556;2024-03-08T09:12:30;11.60;97.30
18898;DHT22;9581;49.484;8.556;2024-03-08T09:14:58;12.90;98.70
18898;DHT22;9581;49.484;8.556;2024-03-08T09:17:25;13.30;96.60
18898;DHT22;9581;49.484;8.556;2024-03-08T09:19:52;13.50;95.50
18898;DHT22;9581;49.484;8.556;2024-03-08T09:22:19;13.80;97.70
18898;DHT22;9581;49.484;8.556;2024-03-08T09:24:46;12.20;96.70
18898;DHT22;9581;49.484;8.556;2024-03-08T09:27:14;11.00;97.30
18898;DHT22;9581;49.484;8.556;2024-03-08T09:29:41;10.50;97.50
18898;DHT22;9581;49.484;8.556;2024-03-08T09:32:08;10.90;98.70
18898;DHT22;9581;49.484;8.556;2024-03-08T09:34:36;10.00;98.10
18898;DHT22;9581;49.484;8.556;2024-03-08T09:37:03;10.20;99.90
18898;DHT22;9581;49.484;8.556;2024-03-08T09:39:30;10.40;99.10
18898;DHT22;9581;49.484;8.556;2024-03-08T09:41:58;10.20;99.20
18898;DHT22;9581;49.484;8.556;2024-03-08T09:44:26;9.60;99.90
18898;DHT22;9581;49.484;8.556;2024-03-08T09:46:54;10.40;99.90
18898;DHT22;9581;49.484;8.556;2024-03-08T09:49:21;9.70;99.50
18898;DHT22;9581;49.484;8.556;2024-03-08T09:51:49;10.00;99.70
18898;DHT22;9581;49.484;8.556;2024-03-08T09:54:17;10.40;99.90
18898;DHT22;9581;49.484;8.556;2024-03-08T09:56:47;10.10;99.50
18898;DHT22;9581;49.484;8.556;2024-03-08T09:59:14;10.20;99.00
18898;DHT22;9581;49.484;8.556;2024-03-08T10:02:13;10.20;99.90
18898;DHT22;9581;49.484;8.556;2024-03-08T10:04:41;10.10;99.10
18898;DHT22;9581;49.484;8.556;2024-03-08T10:07:08;10.60;99.90
18898;DHT22;9581;49.484;8.556;2024-03-08T10:09:35;10.80;99.50
18898;DHT22;9581;49.484;8.556;2024-03-08T10:12:02;11.30;99.90
18898;DHT22;9581;49.484;8.556;2024-03-08T10:14:29;11.40;99.80
18898;DHT22;9581;49.484;8.556;2024-03-08T10:16:57;11.70;99.10
18898;DHT22;9581;49.484;8.556;2024-03-08T10:19:26;10.80;97.90
18898;DHT22;9581;49.484;8.556;2024-03-08T10:21:55;10.90;99.40
18898;DHT22;9581;49.484;8.556;2024-03-08T10:24:24;11.00;98.90
18898;DHT22;9581;49.484;8.556;2024-03-08T10:26:52;9.90;99.30
18898;DHT22;9581;49.484;8.556;2024-03-08T10:29:19;9.70;99.90
18898;DHT22;9581;49.484;8.556;2024-03-08T10:31:46;11.00;99.90
18898;DHT22;9581;49.484;8.556;2024-03-08T10:34:13;11.50;99.90
18898;DHT22;9581;49.484;8.556;2024-03-08T10:36:41;11.50;99.40
18898;DHT22;9581;49.484;8.556;2024-03-08T10:39:18;11.40;98.30
18898;DHT22;9581;49.484;8.556;2024-03-08T10:41:52;12.00;99.90
18898;DHT22;9581;49.484;8.556;2024-03-08T10:44:32;12.30;98.10
18898;DHT22;9581;49.484;8.556;2024-03-08T10:47:02;11.10;98.00
18898;DHT22;9581;49.484;8.556;2024-03-08T10:49:31;10.40;99.10
18898;DHT22;9581;49.484;8.556;2024-03-08T10:52:03;10.80;99.80
18898;DHT22;9581;49.484;8.556;2024-03-08T10:54:31;10.00;99.10
18898;DHT22;9581;49.484;8.556;2024-03-08T10:56:59;10.20;99.60
18898;DHT22;9581;49.484;8.556;2024-03-08T10:59:26;9.90;99.70
18898;DHT22;9581;49.484;8.556;2024-03-08T11:01:54;10.10;99.90
18898;DHT22;9581;49.484;8.556;2024-03-08T11:04:20;10.60;99.50
18898;DHT22;9581;49.484;8.556;2024-03-08T11:06:50;11.20;99.90
18898;DHT22;9581;49.484;8.556;2024-03-08T11:09:29;11.20;98.70
18898;DHT22;9581;49.484;8.556;2024-03-08T11:12:20;11.40;99.00
18898;DHT22;9581;49.484;8.556;2024-03-08T11:14:49;10.40;99.30
18898;DHT22;9581;49.484;8.556;2024-03-08T11:17:16;11.10;99.30
18898;DHT22;9581;49.484;8.556;2024-03-08T11:19:48;10.70;99.60
18898;DHT22;9581;49.484;8.556;2024-03-08T11:22:22;11.30;99.90
18898;DHT22;9581;49.484;8.556;2024-03-08T11:24:50;11.10;99.40
18898;DHT22;9581;49.484;8.556;2024-03-08T11:27:17;10.90;98.90
18898;DHT22;9581;49.484;8.556;2024-03-08T11:29:59;11.30;99.30
18898;DHT22;9581;49.484;8.556;2024-03-08T11:32:35;11.00;98.40
18898;DHT22;9581;49.484;8.556;2024-03-08T11:35:06;11.20;98.50
18898;DHT22;9581;49.484;8.556;2024-03-08T11:37:34;10.50;99.10
18898;DHT22;9581;49.484;8.556;2024-03-08T11:40:12;11.00;99.40
18898;DHT22;9581;49.484;8.556;2024-03-08T11:42:44;10.70;99.20
18898;DHT22;9581;49.484;8.556;2024-03-08T11:45:12;10.60;98.90
18898;DHT22;9581;49.484;8.556;2024-03-08T11:47:39;11.30;99.70
18898;DHT22;9581;49.484;8.556;2024-03-08T11:50:10;11.50;98.40
18898;DHT22;9581;49.484;8.556;2024-03-08T11:52:38;11.60;99.20
18898;DHT22;9581;49.484;8.556;2024-03-08T11:55:07;11.00;98.80
18898;DHT22;9581;49.484;8.556;2024-03-08T11:57:34;10.30;98.80
18898;DHT22;9581;49.484;8.556;2024-03-08T12:00:01;10.20;99.30
18898;DHT22;9581;49.484;8.556;2024-03-08T12:02:32;10.90;99.50
18898;DHT22;9581;49.484;8.556;2024-03-08T12:05:01;11.80;98.90
18898;DHT22;9581;49.484;8.556;2024-03-08T12:07:28;11.80;98.80
18898;DHT22;9581;49.484;8.556;2024-03-08T12:10:21;11.50;97.80
18898;DHT22;9581;49.484;8.556;2024-03-08T12:12:49;11.60;98.80
18898;DHT22;9581;49.484;8.556;2024-03-08T12:15:17;11.70;98.60
18898;DHT22;9581;49.484;8.556;2024-03-08T12:17:45;11.70;98.90
18898;DHT22;9581;49.484;8.556;2024-03-08T12:20:15;12.40;98.70
18898;DHT22;9581;49.484;8.556;2024-03-08T12:22:43;12.90;98.20
18898;DHT22;9581;49.484;8.556;2024-03-08T12:25:11;12.30;98.00
18898;DHT22;9581;49.484;8.556;2024-03-08T12:27:39;12.70;98.60
18898;DHT22;9581;49.484;8.556;2024-03-08T12:30:18;13.40;97.50
18898;DHT22;9581;49.484;8.556;2024-03-08T12:32:48;13.00;96.90
18898;DHT22;9581;49.484;8.556;2024-03-08T12:35:15;12.80;97.00
18898;DHT22;9581;49.484;8.556;2024-03-08T12:37:42;13.00;97.60
18898;DHT22;9581;49.484;8.556;2024-03-08T12:40:09;12.20;96.70
18898;DHT22;9581;49.484;8.556;2024-03-08T12:42:43;12.30;97.10
18898;DHT22;9581;49.484;8.556;2024-03-08T12:45:13;12.20;97.60
18898;DHT22;9581;49.484;8.556;2024-03-08T12:47:40;12.20;97.10
18898;DHT22;9581;49.484;8.556;2024-03-08T12:50:08;12.70;97.00
18898;DHT22;9581;49.484;8.556;2024-03-08T12:52:35;12.90;96.50
18898;DHT22;9581;49.484;8.556;2024-03-08T12:55:02;13.30;97.20
18898;DHT22;9581;49.484;8.556;2024-03-08T12:57:32;13.50;97.60
18898;DHT22;9581;49.484;8.556;2024-03-08T13:00:01;13.50;97.60
18898;DHT22;9581;49.484;8.556;2024-03-08T13:02:29;13.90;97.40
18898;DHT22;9581;49.484;8.556;2024-03-08T13:04:57;13.80;97.50
18898;DHT22;9581;49.484;8.556;2024-03-08T13:07:24;13.90;96.90
18898;DHT22;9581;49.484;8.556;2024-03-08T13:09:52;13.90;96.30
18898;DHT22;9581;49.484;8.556;2024-03-08T13:12:19;14.10;96.40
18898;DHT22;9581;49.484;8.556;2024-03-08T13:14:46;13.90;96.70
18898;DHT22;9581;49.484;8.556;2024-03-08T13:17:15;14.40;96.10
18898;DHT22;9581;49.484;8.556;2024-03-08T13:19:43;13.70;95.60
18898;DHT22;9581;49.484;8.556;2024-03-08T13:22:10;13.10;95.80
18898;DHT22;9581;49.484;8.556;2024-03-08T13:24:38;13.20;96.10
18898;DHT22;9581;49.484;8.556;2024-03-08T13:27:06;13.70;96.50
18898;DHT22;9581;49.484;8.556;2024-03-08T13:29:45;14.00;96.20
18898;DHT22;9581;49.484;8.556;2024-03-08T13:32:12;13.50;96.70
18898;DHT22;9581;49.484;8.556;2024-03-08T13:34:42;13.60;95.60
18898;DHT22;9581;49.484;8.556;2024-03-08T13:37:09;13.70;96.50
18898;DHT22;9581;49.484;8.556;2024-03-08T13:39:37;13.80;95.90
18898;DHT22;9581;49.484;8.556;2024-03-08T13:42:09;13.90;96.10
18898;DHT22;9581;49.484;8.556;2024-03-08T13:44:43;14.40;96.40
18898;DHT22;9581;49.484;8.556;2024-03-08T13:47:09;14.10;95.30
18898;DHT22;9581;49.484;8.556;2024-03-08T13:49:37;14.50;95.90
18898;DHT22;9581;49.484;8.556;2024-03-08T13:52:05;14.30;96.20
18898;DHT22;9581;49.484;8.556;2024-03-08T13:54:33;14.10;95.20
18898;DHT22;9581;49.484;8.556;2024-03-08T13:57:01;13.80;94.90
18898;DHT22;9581;49.484;8.556;2024-03-08T13:59:29;13.80;96.10
18898;DHT22;9581;49.484;8.556;2024-03-08T14:01:56;13.40;95.00
18898;DHT22;9581;49.484;8.556;2024-03-08T14:04:23;13.20;95.60
18898;DHT22;9581;49.484;8.556;2024-03-08T14:06:51;13.60;96.10
18898;DHT22;9581;49.484;8.556;2024-03-08T14:09:23;13.70;96.30
18898;DHT22;9581;49.484;8.556;2024-03-08T14:11:50;13.90;95.70
18898;DHT22;9581;49.484;8.556;2024-03-08T14:14:20;14.20;95.70
18898;DHT22;9581;49.484;8.556;2024-03-08T14:16:48;14.00;96.00
18898;DHT22;9581;49.484;8.556;2024-03-08T14:19:18;14.20;95.70
18898;DHT22;9581;49.484;8.556;2024-03-08T14:21:45;14.30;95.80
18898;DHT22;9581;49.484;8.556;2024-03-08T14:24:13;14.30;95.60
18898;DHT22;9581;49.484;8.556;2024-03-08T14:26:42;14.40;95.50
18898;DHT22;9581;49.484;8.556;2024-03-08T14:29:08;14.50;95.50
18898;DHT22;9581;49.484;8.556;2024-03-08T14:31:36;14.20;94.80
18898;DHT22;9581;49.484;8.556;2024-03-08T14:34:03;13.60;94.60
18898;DHT22;9581;49.484;8.556;2024-03-08T14:36:30;13.80;95.20
18898;DHT22;9581;49.484;8.556;2024-03-08T14:38:57;14.10;94.60
18898;DHT22;9581;49.484;8.556;2024-03-08T14:41:24;14.80;95.70
18898;DHT22;9581;49.484;8.556;2024-03-08T14:43:53;15.50;95.10
18898;DHT22;9581;49.484;8.556;2024-03-08T14:46:20;16.00;94.10
18898;DHT22;9581;49.484;8.556;2024-03-08T14:48:49;16.70;93.60
18898;DHT22;9581;49.484;8.556;2024-03-08T14:51:17;17.00;93.30
18898;DHT22;9581;49.484;8.556;2024-03-08T14:53:46;17.20;92.50
18898;DHT22;9581;49.484;8.556;2024-03-08T14:56:13;17.60;91.90
18898;DHT22;9581;49.484;8.556;2024-03-08T14:58:41;17.70;91.20
18898;DHT22;9581;49.484;8.556;2024-03-08T15:01:10;17.70;91.60
18898;DHT22;9581;49.484;8.556;2024-03-08T15:03:39;18.10;90.90
18898;DHT22;9581;49.484;8.556;2024-03-08T15:06:06;17.70;91.10
18898;DHT22;9581;49.484;8.556;2024-03-08T15:08:35;18.00;91.20
18898;DHT22;9581;49.484;8.556;2024-03-08T15:11:01;18.20;91.00
18898;DHT22;9581;49.484;8.556;2024-03-08T15:13:28;18.60;89.20
18898;DHT22;9581;49.484;8.556;2024-03-08T15:16:05;18.70;89.60
18898;DHT22;9581;49.484;8.556;2024-03-08T15:18:34;18.30;89.70
18898;DHT22;9581;49.484;8.556;2024-03-08T15:21:03;17.70;90.20
18898;DHT22;9581;49.484;8.556;2024-03-08T15:23:33;16.80;87.70
18898;DHT22;9581;49.484;8.556;2024-03-08T15:26:00;16.60;87.20
18898;DHT22;9581;49.484;8.556;2024-03-08T15:28:27;16.40;89.50
18898;DHT22;9581;49.484;8.556;2024-03-08T15:31:01;16.30;88.40
18898;DHT22;9581;49.484;8.556;2024-03-08T15:33:33;16.30;89.30
18898;DHT22;9581;49.484;8.556;2024-03-08T15:36:00;16.40;90.50
18898;DHT22;9581;49.484;8.556;2024-03-08T15:38:33;16.10;89.50
18898;DHT22;9581;49.484;8.556;2024-03-08T15:40:59;15.70;90.10
18898;DHT22;9581;49.484;8.556;2024-03-08T15:43:26;15.80;90.70
18898;DHT22;9581;49.484;8.556;2024-03-08T15:45:53;15.20;90.00
18898;DHT22;9581;49.484;8.556;2024-03-08T15:48:20;15.40;90.80
18898;DHT22;9581;49.484;8.556;2024-03-08T15:50:49;15.40;90.40
18898;DHT22;9581;49.484;8.556;2024-03-08T15:53:16;14.90;91.30
18898;DHT22;9581;49.484;8.556;2024-03-08T15:55:44;14.40;89.90
18898;DHT22;9581;49.484;8.556;2024-03-08T15:58:12;14.10;90.40
18898;DHT22;9581;49.484;8.556;2024-03-08T16:00:38;14.30;90.20